Time;durP1;ratioP1;P1;durP2;ratioP2;P2;SDS_P1;SDS_P2;PMS_P1;PMS_P2;Temp;Humidity;BMP_temperature;BMP_pressure;BME280_temperature;BME280_humidity;BME280_pressure;Samples;Min_cycle;Max_cycle;Signal;HPM_P1;HPM_P2
2022/04/19 00:07:51;;;;;;;4.03;3.23;;;10.30;54.50;;;;;;21171514;28;20619;-63
2022/04/19 00:17:52;;;;;;;5.03;3.20;;;10.20;54.50;;;;;;21169785;28;20236;-63
2022/04/19 00:27:54;;;;;;;5.03;3.60;;;10.00;55.00;;;;;;21150927;28;20204;-66
2022/04/19 00:37:56;;;;;;;4.60;3.47;;;9.80;55.90;;;;;;21168522;28;20695;-66
2022/04/19 00:47:58;;;;;;;5.63;3.30;;;9.60;56.40;;;;;;21167330;28;20358;-68
2022/04/19 00:57:59;;;;;;;4.97;3.20;;;9.60;57.10;;;;;;21166571;28;20239;-66
2022/04/19 01:08:01;;;;;;;5.00;3.30;;;9.40;57.50;;;;;;21165985;28;20568;-68
2022/04/19 01:18:04;;;;;;;5.13;2.97;;;9.20;57.20;;;;;;21147256;28;20602;-69
2022/04/19 01:28:06;;;;;;;4.47;3.30;;;9.10;57.50;;;;;;21164694;28;20207;-68
2022/04/19 01:38:08;;;;;;;6.70;2.97;;;9.00;58.30;;;;;;21163743;28;20771;-67
2022/04/19 01:48:10;;;;;;;5.13;3.00;;;9.00;58.10;;;;;;21162427;28;20230;-66
2022/04/19 01:58:11;;;;;;;4.73;3.20;;;9.00;58.90;;;;;;21162497;28;20230;-66
2022/04/19 02:08:13;;;;;;;3.97;3.27;;;8.90;59.00;;;;;;21162619;28;20601;-67
2022/04/19 02:18:15;;;;;;;4.27;3.40;;;8.90;58.70;;;;;;21161865;28;20243;-66
2022/04/19 02:28:17;;;;;;;5.73;3.37;;;8.70;59.30;;;;;;21161552;28;20237;-68
2022/04/19 02:38:18;;;;;;;4.03;3.03;;;8.70;59.30;;;;;;21161564;28;20288;-64
2022/04/19 02:48:21;;;;;;;5.40;3.70;;;8.50;59.80;;;;;;21165473;28;20234;-66
2022/04/19 02:58:25;;;;;;;3.87;3.30;;;8.40;60.20;;;;;;21158425;28;20229;-64
2022/04/19 03:08:28;;;;;;;8.07;3.50;;;8.40;60.60;;;;;;21175651;28;20218;-69
2022/04/19 03:18:30;;;;;;;7.27;4.00;;;8.40;61.20;;;;;;21157128;28;20734;-68
2022/04/19 03:28:32;;;;;;;4.23;3.30;;;8.20;61.20;;;;;;21173870;28;20658;-65
2022/04/19 03:38:36;;;;;;;8.60;3.47;;;8.30;62.00;;;;;;21173392;28;20235;-66
2022/04/19 03:48:38;;;;;;;5.43;3.77;;;8.30;61.80;;;;;;21171867;28;20230;-64
2022/04/19 03:58:40;;;;;;;7.20;4.07;;;8.10;61.50;;;;;;21171319;28;20248;-67
2022/04/19 04:08:42;;;;;;;5.83;3.90;;;8.10;62.40;;;;;;21176643;28;20214;-66
2022/04/19 04:18:44;;;;;;;5.03;3.67;;;7.80;62.50;;;;;;21169931;28;20233;-67
2022/04/19 04:28:45;;;;;;;8.63;3.90;;;7.60;63.40;;;;;;21168918;28;20233;-67
2022/04/19 04:38:47;;;;;;;5.57;4.23;;;7.60;63.70;;;;;;21165532;28;20237;-65
2022/04/19 04:59:09;;;;;;;8.27;4.40;;;7.40;64.10;;;;;;21166342;28;20251;-67
2022/04/19 05:09:13;;;;;;;9.87;4.70;;;7.40;64.70;;;;;;21163777;28;20560;-63
2022/04/19 05:19:15;;;;;;;16.63;4.47;;;7.50;64.60;;;;;;21165175;28;20661;-67
2022/04/19 05:29:19;;;;;;;11.87;4.50;;;7.70;64.80;;;;;;21164506;28;20202;-68
2022/04/19 05:39:21;;;;;;;12.30;4.90;;;8.00;64.60;;;;;;21175328;28;20236;-68
2022/04/19 05:49:23;;;;;;;8.30;4.23;;;8.20;64.40;;;;;;21173178;28;20233;-69
2022/04/19 05:59:25;;;;;;;9.37;6.60;;;8.20;64.20;;;;;;21162672;28;20202;-69
2022/04/19 06:09:26;;;;;;;15.17;6.07;;;8.40;63.90;;;;;;21161536;28;20238;-67
2022/04/19 06:19:28;;;;;;;16.20;5.90;;;8.80;63.90;;;;;;21160361;28;20205;-67
2022/04/19 06:29:30;;;;;;;13.83;6.43;;;9.10;63.80;;;;;;21177981;28;20268;-68
2022/04/19 06:39:32;;;;;;;13.67;6.03;;;9.40;63.20;;;;;;21176770;28;20236;-68
2022/04/19 06:49:34;;;;;;;18.33;6.07;;;9.90;62.60;;;;;;21153342;27;20248;-63
2022/04/19 06:59:36;;;;;;;10.97;5.93;;;9.90;63.00;;;;;;21091102;28;20210;-64
2022/04/19 07:09:38;;;;;;;8.73;5.30;;;10.60;59.00;;;;;;21088824;28;20230;-62
2022/04/19 07:30:00;;;;;;;12.13;5.27;;;11.20;54.50;;;;;;21087566;28;20238;-64
2022/04/19 07:40:03;;;;;;;9.30;5.10;;;11.30;53.40;;;;;;21112822;28;20634;-64
2022/04/19 07:50:05;;;;;;;10.87;5.27;;;11.70;51.80;;;;;;21171750;28;20241;-64
2022/04/19 08:00:09;;;;;;;8.87;5.17;;;12.00;51.50;;;;;;21171168;28;20290;-65
2022/04/19 08:10:12;;;;;;;12.70;5.17;;;12.40;50.80;;;;;;21169969;28;20241;-64
2022/04/19 08:20:14;;;;;;;9.83;5.33;;;12.80;50.80;;;;;;21168846;28;20204;-64
2022/04/19 08:30:18;;;;;;;8.30;5.30;;;13.00;50.70;;;;;;21167547;28;20335;-65
2022/04/19 08:40:20;;;;;;;9.40;5.50;;;13.50;50.00;;;;;;21137407;28;20227;-66
2022/04/19 08:50:22;;;;;;;7.07;4.90;;;13.70;49.20;;;;;;21082005;28;20300;-66
2022/04/19 09:00:24;;;;;;;10.63;6.00;;;14.00;48.20;;;;;;21081286;28;20543;-67
2022/04/19 09:10:34;;;;;;;8.20;5.20;;;14.30;47.10;;;;;;21085347;28;20267;-65
2022/04/19 09:20:36;;;;;;;7.80;5.40;;;14.50;46.80;;;;;;21080063;28;20278;-65
2022/04/19 09:30:39;;;;;;;15.97;9.00;;;14.50;46.60;;;;;;21078665;28;20238;-66
2022/04/19 09:40:48;;;;;;;6.97;5.33;;;14.70;44.90;;;;;;21109539;28;20222;-65
2022/04/19 09:51:12;;;;;;;8.77;5.10;;;14.80;45.30;;;;;;21162422;28;20245;-65
2022/04/19 10:11:37;;;;;;;8.07;4.63;;;15.30;44.80;;;;;;21161301;28;20230;-68
2022/04/19 10:21:44;;;;;;;4.80;3.53;;;15.80;44.30;;;;;;21157601;28;20206;-67
2022/04/19 10:32:07;;;;;;;4.63;2.70;;;16.10;43.70;;;;;;21158182;28;20234;-69
2022/04/19 10:42:37;;;;;;;3.03;2.50;;;16.20;43.20;;;;;;21157611;28;20307;-66
2022/04/19 10:52:39;;;;;;;7.60;2.87;;;16.20;43.70;;;;;;21156711;28;20244;-66
2022/04/19 11:02:43;;;;;;;3.67;2.30;;;16.30;43.50;;;;;;21156313;28;20292;-65
2022/04/19 11:13:00;;;;;;;3.70;2.40;;;16.50;43.20;;;;;;21167166;28;20233;-68
2022/04/19 11:23:18;;;;;;;5.70;2.70;;;16.70;42.90;;;;;;21175589;28;20195;-68
2022/04/19 11:33:21;;;;;;;5.13;2.33;;;16.80;42.90;;;;;;21192990;28;20331;-68
2022/04/19 11:53:45;;;;;;;3.43;2.30;;;17.10;41.50;;;;;;21171076;28;20251;-67
2022/04/19 12:03:46;;;;;;;3.97;2.07;;;17.40;41.40;;;;;;21170590;28;20616;-69
2022/04/19 12:13:51;;;;;;;2.93;2.20;;;17.60;41.40;;;;;;21169624;28;20237;-68
2022/04/19 12:23:53;;;;;;;4.50;2.10;;;18.00;41.20;;;;;;21141428;28;20205;-67
2022/04/19 12:33:55;;;;;;;3.10;2.00;;;18.40;40.60;;;;;;21064529;28;20262;-68
2022/04/19 12:44:01;;;;;;;3.27;1.93;;;18.80;39.90;;;;;;21083003;28;20201;-67
2022/04/19 12:54:05;;;;;;;3.20;1.80;;;18.90;39.50;;;;;;21081917;28;20247;-67
2022/04/19 13:04:07;;;;;;;2.43;1.50;;;19.20;40.60;;;;;;21081148;28;20209;-69
2022/04/19 13:14:09;;;;;;;1.90;1.50;;;19.20;40.90;;;;;;21080121;28;20243;-67
2022/04/19 13:24:10;;;;;;;2.53;1.80;;;19.10;41.00;;;;;;21061880;28;20722;-68
2022/04/19 13:34:12;;;;;;;4.30;1.80;;;19.20;40.90;;;;;;21078732;28;20663;-67
2022/04/19 13:44:14;;;;;;;1.40;1.30;;;19.30;39.80;;;;;;21078158;28;20208;-68
2022/04/19 13:54:20;;;;;;;1.60;1.20;;;19.70;40.60;;;;;;21077085;28;20367;-68
2022/04/19 14:04:22;;;;;;;1.30;1.20;;;22.70;37.30;;;;;;21093160;28;20211;-68
2022/04/19 14:14:24;;;;;;;1.80;0.98;;;26.10;34.20;;;;;;21059279;28;20291;-67
2022/04/19 14:24:27;;;;;;;1.02;0.95;;;27.90;30.40;;;;;;21076967;28;20198;-68
2022/04/19 14:34:29;;;;;;;3.17;0.73;;;26.20;30.60;;;;;;21076209;28;20268;-68
2022/04/19 14:44:30;;;;;;;2.95;0.60;;;29.10;27.60;;;;;;21085113;28;20206;-69
2022/04/19 14:54:32;;;;;;;3.47;0.90;;;31.40;25.30;;;;;;21093874;28;20245;-68
2022/04/19 15:04:34;;;;;;;2.53;1.00;;;31.10;25.60;;;;;;21108908;28;20198;-68
2022/04/19 15:14:38;;;;;;;1.30;0.80;;;30.40;25.40;;;;;;21090911;28;20234;-68
2022/04/19 15:24:40;;;;;;;2.00;1.07;;;27.40;26.40;;;;;;21089669;28;20210;-67
2022/04/19 15:34:42;;;;;;;5.70;1.00;;;24.40;27.10;;;;;;21103733;28;20252;-67
2022/04/19 15:44:48;;;;;;;5.37;1.20;;;24.40;27.60;;;;;;21171416;28;20206;-71
2022/04/19 15:54:51;;;;;;;3.72;1.00;;;25.10;28.20;;;;;;21169195;28;20328;-70
2022/04/19 16:04:53;;;;;;;1.73;1.35;;;25.20;28.50;;;;;;21150147;28;20206;-71
2022/04/19 16:14:57;;;;;;;3.85;1.38;;;27.00;27.40;;;;;;21166594;28;20230;-71
2022/04/19 16:24:59;;;;;;;7.50;1.50;;;24.40;28.30;;;;;;21125406;28;20684;-70
2022/04/19 16:35:01;;;;;;;8.37;1.33;;;24.10;28.00;;;;;;21119919;28;20715;-71
2022/04/19 16:45:03;;;;;;;6.33;1.20;;;24.90;27.50;;;;;;21166297;28;20293;-72
2022/04/19 16:55:06;;;;;;;1.17;1.07;;;24.90;27.10;;;;;;21164531;28;20245;-72
2022/04/19 17:05:08;;;;;;;1.73;1.40;;;22.80;27.50;;;;;;21166764;28;20201;-63
2022/04/19 17:15:10;;;;;;;3.90;1.70;;;21.00;27.40;;;;;;21163845;28;20283;-62
2022/04/19 17:25:13;;;;;;;4.83;2.57;;;19.50;28.80;;;;;;21166551;28;20205;-66
2022/04/19 17:35:15;;;;;;;3.47;2.03;;;19.20;29.60;;;;;;21152549;28;20241;-63
2022/04/19 17:45:19;;;;;;;2.00;1.60;;;17.80;31.30;;;;;;21160014;28;20202;-64
2022/04/19 18:05:42;;;;;;;3.42;2.00;;;17.10;33.20;;;;;;21113027;28;20933;-67
2022/04/19 18:15:43;;;;;;;4.90;2.20;;;16.40;34.60;;;;;;21158725;28;20591;-65
2022/04/19 18:25:45;;;;;;;4.67;2.20;;;16.00;34.90;;;;;;21176247;28;20904;-65
2022/04/19 18:35:47;;;;;;;5.23;2.50;;;15.70;35.40;;;;;;21176817;28;20596;-63
2022/04/19 18:45:49;;;;;;;6.13;2.90;;;15.40;35.80;;;;;;21175430;28;20213;-64
2022/04/19 18:55:53;;;;;;;4.93;2.77;;;15.10;36.50;;;;;;21172474;28;20256;-65
2022/04/19 19:05:54;;;;;;;7.47;3.17;;;14.80;36.70;;;;;;21174615;28;20216;-62
2022/04/19 19:15:56;;;;;;;3.03;2.57;;;14.70;37.00;;;;;;21173010;28;20236;-66
2022/04/19 19:25:58;;;;;;;5.97;2.80;;;14.30;37.60;;;;;;21168242;28;20221;-66
2022/04/19 19:36:00;;;;;;;4.60;2.53;;;14.10;37.70;;;;;;21171017;28;20263;-66
2022/04/19 19:46:02;;;;;;;3.77;2.60;;;14.10;37.80;;;;;;21172146;28;20207;-66
2022/04/19 19:56:04;;;;;;;6.30;2.70;;;13.90;37.70;;;;;;21171858;28;20595;-65
2022/04/19 20:06:05;;;;;;;7.23;3.13;;;13.90;37.50;;;;;;21171264;28;20204;-64
2022/04/19 20:16:08;;;;;;;4.23;2.60;;;13.50;37.60;;;;;;21146511;28;20232;-62
2022/04/19 20:26:09;;;;;;;13.57;3.00;;;13.50;38.20;;;;;;21082181;28;20663;-66
2022/04/19 20:36:11;;;;;;;8.50;3.77;;;13.30;38.00;;;;;;21084071;28;20243;-63
2022/04/19 20:46:13;;;;;;;4.73;2.70;;;13.10;38.90;;;;;;21136142;28;20206;-64
2022/04/19 20:56:15;;;;;;;7.73;3.20;;;12.90;39.00;;;;;;21166743;28;20269;-62
2022/04/19 21:06:17;;;;;;;7.23;3.40;;;12.90;39.50;;;;;;21166487;28;20212;-67
2022/04/19 21:16:18;;;;;;;3.63;3.03;;;12.50;39.70;;;;;;21163358;28;20261;-62
2022/04/19 21:26:20;;;;;;;6.00;3.50;;;12.40;40.00;;;;;;21165146;28;20229;-64
2022/04/19 21:36:22;;;;;;;5.90;3.77;;;12.40;40.70;;;;;;21162519;28;20673;-67
2022/04/19 21:46:24;;;;;;;5.90;3.83;;;12.00;41.20;;;;;;21162914;28;20275;-64
2022/04/19 21:56:26;;;;;;;6.17;3.73;;;11.90;41.80;;;;;;21162171;28;20268;-64
2022/04/19 22:06:27;;;;;;;6.47;3.60;;;11.60;42.70;;;;;;21162737;28;20616;-67
2022/04/19 22:16:34;;;;;;;8.63;4.10;;;11.50;43.00;;;;;;21145836;28;21059;-63
2022/04/19 22:26:36;;;;;;;7.40;3.90;;;11.40;44.80;;;;;;21089632;28;20211;-70
2022/04/19 22:36:38;;;;;;;5.03;3.23;;;11.00;45.40;;;;;;21077089;28;20336;-71
2022/04/19 22:46:40;;;;;;;4.03;3.20;;;11.00;45.80;;;;;;21077884;28;20304;-64
2022/04/19 22:56:42;;;;;;;6.57;3.43;;;10.90;45.10;;;;;;21076335;28;20237;-69
2022/04/19 23:06:44;;;;;;;12.23;4.00;;;10.70;46.50;;;;;;21084824;28;20293;-68
2022/04/19 23:16:46;;;;;;;8.23;4.00;;;10.70;47.10;;;;;;21102221;28;20594;-69
2022/04/19 23:37:08;;;;;;;5.57;3.43;;;10.20;48.50;;;;;;21089401;28;20236;-71
2022/04/19 23:47:10;;;;;;;9.10;3.67;;;10.20;48.40;;;;;;21088907;28;20725;-65
2022/04/19 23:57:12;;;;;;;4.43;3.33;;;10.10;49.20;;;;;;21088154;28;20236;-71
